Time;durP1;ratioP1;P1;durP2;ratioP2;P2;SDS_P1;SDS_P2;PMS_P1;PMS_P2;Temp;Humidity;BMP_temperature;BMP_pressure;BME280_temperature;BME280_humidity;BME280_pressure;Samples;Min_cycle;Max_cycle;Signal;HPM_P1;HPM_P2
2022/09/04 00:01:11;;;;;;;;;;;23.60;45.20;;;;;;8429911;28;19912;-44
2022/09/04 00:05:18;;;;;;;;;;;23.60;45.10;;;;;;8411498;28;19945;-44
2022/09/04 00:09:27;;;;;;;;;;;23.60;45.10;;;;;;8429827;28;19965;-45
2022/09/04 00:13:32;;;;;;;;;;;23.60;45.10;;;;;;8429729;28;20285;-45
2022/09/04 00:17:37;;;;;;;;;;;23.60;45.20;;;;;;8429399;28;20019;-44
2022/09/04 00:21:42;;;;;;;;;;;23.60;45.10;;;;;;8429620;28;19994;-44
2022/09/04 00:25:56;;;;;;;;;;;23.60;45.20;;;;;;8432543;28;19912;-43
2022/09/04 00:30:06;;;;;;;;;;;23.60;45.20;;;;;;8435975;28;19912;-43
2022/09/04 00:34:19;;;;;;;;;;;23.60;45.20;;;;;;8436212;28;20011;-44
2022/09/04 00:38:32;;;;;;;;;;;23.60;45.20;;;;;;8417272;28;19924;-45
2022/09/04 00:42:40;;;;;;;;;;;23.50;45.10;;;;;;8436160;28;19917;-47
2022/09/04 00:46:44;;;;;;;;;;;23.60;45.20;;;;;;8435872;28;19969;-45
2022/09/04 00:50:54;;;;;;;;;;;23.50;45.20;;;;;;8435155;28;20387;-43
2022/09/04 00:55:06;;;;;;;;;;;23.60;45.20;;;;;;8435563;28;19961;-44
2022/09/04 00:59:25;;;;;;;;;;;23.50;45.20;;;;;;8435249;28;19995;-44
2022/09/04 01:03:51;;;;;;;;;;;23.50;45.20;;;;;;8435223;28;19999;-45
2022/09/04 01:08:03;;;;;;;;;;;23.50;45.10;;;;;;8435022;28;19916;-44
2022/09/04 01:12:12;;;;;;;;;;;23.50;45.20;;;;;;8450281;28;20261;-43
2022/09/04 01:16:20;;;;;;;;;;;23.50;45.20;;;;;;8434797;28;19963;-44
2022/09/04 01:20:31;;;;;;;;;;;23.50;45.10;;;;;;8435038;28;20334;-45
2022/09/04 01:24:31;;;;;;;;;;;23.50;45.20;;;;;;8434584;28;19923;-45
2022/09/04 01:28:35;;;;;;;;;;;23.50;45.10;;;;;;8434415;28;19917;-44
2022/09/04 01:32:44;;;;;;;;;;;23.50;45.20;;;;;;8433689;28;19995;-44
2022/09/04 01:36:52;;;;;;;;;;;23.50;45.20;;;;;;8432709;28;19932;-45
2022/09/04 01:40:57;;;;;;;;;;;23.50;45.70;;;;;;8434442;28;19912;-45
2022/09/04 01:44:57;;;;;;;;;;;23.40;45.10;;;;;;8433351;28;20381;-46
2022/09/04 01:49:04;;;;;;;;;;;23.50;45.20;;;;;;8434144;28;19949;-44
2022/09/04 01:53:13;;;;;;;;;;;23.40;45.10;;;;;;8433622;28;19991;-45
2022/09/04 01:57:30;;;;;;;;;;;23.40;45.70;;;;;;8433220;28;20340;-45
2022/09/04 02:01:43;;;;;;;;;;;23.40;45.20;;;;;;8433649;28;19946;-45
2022/09/04 02:06:01;;;;;;;;;;;23.50;45.30;;;;;;8433050;28;20003;-44
2022/09/04 02:10:07;;;;;;;;;;;23.40;45.20;;;;;;8433113;28;19923;-44
2022/09/04 02:14:17;;;;;;;;;;;23.40;45.20;;;;;;8432901;28;19958;-46
2022/09/04 02:18:34;;;;;;;;;;;23.40;45.10;;;;;;8432799;28;19924;-46
2022/09/04 02:22:35;;;;;;;;;;;23.40;45.70;;;;;;8414571;28;19927;-44
2022/09/04 02:26:39;;;;;;;;;;;23.30;45.10;;;;;;8432203;28;19912;-44
2022/09/04 02:30:58;;;;;;;;;;;23.40;45.20;;;;;;8432726;28;19920;-46
2022/09/04 02:35:08;;;;;;;;;;;23.40;45.20;;;;;;8432216;28;19924;-45
2022/09/04 02:39:27;;;;;;;;;;;23.40;45.20;;;;;;8431611;28;20395;-46
2022/09/04 02:43:43;;;;;;;;;;;23.30;45.20;;;;;;8431963;28;19972;-45
2022/09/04 02:47:46;;;;;;;;;;;23.30;45.20;;;;;;8430951;28;20392;-46
2022/09/04 02:51:52;;;;;;;;;;;23.30;45.20;;;;;;8432000;28;19924;-45
2022/09/04 02:56:11;;;;;;;;;;;23.30;45.20;;;;;;8435462;28;19927;-45
2022/09/04 03:04:21;;;;;;;;;;;23.30;45.20;;;;;;8431519;28;20396;-47
2022/09/04 03:08:45;;;;;;;;;;;23.30;45.20;;;;;;8430752;28;20431;-45
2022/09/04 03:12:50;;;;;;;;;;;23.30;45.20;;;;;;8417474;28;19998;-45
2022/09/04 03:17:04;;;;;;;;;;;23.30;45.20;;;;;;8430738;28;19924;-46
2022/09/04 03:21:22;;;;;;;;;;;23.30;45.20;;;;;;8430601;28;19961;-45
2022/09/04 03:25:31;;;;;;;;;;;23.30;45.20;;;;;;8430598;28;19920;-45
2022/09/04 03:29:41;;;;;;;;;;;23.30;45.20;;;;;;8430071;28;19916;-46
2022/09/04 03:33:45;;;;;;;;;;;23.30;45.20;;;;;;8430745;28;19927;-44
2022/09/04 03:37:46;;;;;;;;;;;23.30;45.20;;;;;;8430243;28;20292;-48
2022/09/04 03:41:57;;;;;;;;;;;23.20;45.20;;;;;;8430076;28;19923;-45
2022/09/04 03:46:16;;;;;;;;;;;23.30;45.70;;;;;;8430530;28;19923;-47
2022/09/04 03:50:17;;;;;;;;;;;23.20;45.10;;;;;;8429670;28;19916;-45
2022/09/04 03:54:17;;;;;;;;;;;23.20;45.20;;;;;;8430012;28;19917;-46
2022/09/04 03:58:25;;;;;;;;;;;23.20;45.10;;;;;;8429561;28;20373;-46
2022/09/04 04:02:26;;;;;;;;;;;23.20;45.10;;;;;;8429170;28;19963;-44
2022/09/04 04:06:32;;;;;;;;;;;23.20;45.20;;;;;;8429207;28;19912;-45
2022/09/04 04:10:52;;;;;;;;;;;23.20;45.20;;;;;;8429816;28;19916;-46
2022/09/04 04:14:58;;;;;;;;;;;23.20;45.10;;;;;;8428948;28;19924;-46
2022/09/04 04:19:05;;;;;;;;;;;23.20;45.10;;;;;;8429809;28;20323;-46
2022/09/04 04:23:14;;;;;;;;;;;23.20;45.10;;;;;;8429585;28;19927;-44
2022/09/04 04:27:35;;;;;;;;;;;23.20;45.10;;;;;;8429584;28;20281;-45
2022/09/04 04:32:09;;;;;;;;;;;23.20;45.20;;;;;;8428991;28;21280;-44
2022/09/04 04:36:25;;;;;;;;;;;23.20;45.10;;;;;;8428589;28;20003;-44
2022/09/04 04:40:44;;;;;;;;;;;23.20;45.20;;;;;;8428940;28;20361;-45
2022/09/04 04:49:26;;;;;;;;;;;23.10;45.10;;;;;;8432664;28;19923;-45
2022/09/04 04:53:31;;;;;;;;;;;23.10;45.10;;;;;;8428679;28;19920;-44
2022/09/04 04:57:52;;;;;;;;;;;23.10;45.10;;;;;;8429202;28;19942;-45
2022/09/04 05:02:06;;;;;;;;;;;23.10;45.20;;;;;;8429128;28;19916;-44
2022/09/04 05:06:16;;;;;;;;;;;23.10;45.10;;;;;;8428522;28;19924;-44
2022/09/04 05:10:19;;;;;;;;;;;23.10;45.10;;;;;;8429788;28;19923;-43
2022/09/04 05:14:27;;;;;;;;;;;23.10;45.10;;;;;;8434403;28;20380;-45
2022/09/04 05:18:30;;;;;;;;;;;23.10;45.10;;;;;;8434906;28;19931;-44
2022/09/04 05:22:37;;;;;;;;;;;23.10;45.10;;;;;;8434802;28;19916;-45
2022/09/04 05:26:43;;;;;;;;;;;23.10;45.10;;;;;;8434246;28;20002;-42
2022/09/04 05:30:49;;;;;;;;;;;23.10;45.10;;;;;;8434451;28;19916;-44
2022/09/04 05:34:50;;;;;;;;;;;23.10;45.10;;;;;;8434116;28;19916;-44
2022/09/04 05:38:55;;;;;;;;;;;23.10;45.10;;;;;;8433436;28;19924;-44
2022/09/04 05:43:15;;;;;;;;;;;23.10;45.10;;;;;;8433599;28;19939;-46
2022/09/04 05:47:30;;;;;;;;;;;23.10;45.10;;;;;;8433357;28;19916;-44
2022/09/04 05:51:54;;;;;;;;;;;23.10;45.10;;;;;;8433820;28;19984;-45
2022/09/04 05:55:54;;;;;;;;;;;23.10;45.10;;;;;;8433551;28;19924;-44
2022/09/04 06:00:03;;;;;;;;;;;23.10;45.10;;;;;;8432923;28;20389;-45
2022/09/04 06:04:12;;;;;;;;;;;23.00;45.10;;;;;;8433409;28;19916;-46
2022/09/04 06:08:18;;;;;;;;;;;23.00;45.10;;;;;;8432805;28;19939;-44
2022/09/04 06:12:18;;;;;;;;;;;23.00;45.10;;;;;;8433520;28;19912;-44
2022/09/04 06:16:22;;;;;;;;;;;23.00;45.10;;;;;;8432663;28;20407;-44
2022/09/04 06:20:41;;;;;;;;;;;23.00;45.10;;;;;;8432208;28;20368;-44
2022/09/04 06:25:00;;;;;;;;;;;23.10;45.10;;;;;;8431770;28;19973;-45
2022/09/04 06:29:11;;;;;;;;;;;23.10;45.10;;;;;;8432472;28;19912;-43
2022/09/04 06:33:27;;;;;;;;;;;23.10;45.10;;;;;;8432293;28;20285;-44
2022/09/04 06:37:46;;;;;;;;;;;23.10;45.10;;;;;;8432337;28;20372;-45
2022/09/04 06:41:47;;;;;;;;;;;23.10;45.00;;;;;;8431478;28;19916;-44
2022/09/04 06:45:52;;;;;;;;;;;23.10;45.00;;;;;;8431985;28;19923;-45
2022/09/04 06:50:04;;;;;;;;;;;23.10;45.00;;;;;;8431611;28;19920;-43
2022/09/04 06:54:17;;;;;;;;;;;23.10;45.00;;;;;;8431028;28;19916;-45
2022/09/04 06:58:21;;;;;;;;;;;23.10;45.00;;;;;;8431212;28;19920;-43
2022/09/04 07:02:36;;;;;;;;;;;23.10;45.00;;;;;;8429720;28;20317;-43
2022/09/04 07:06:46;;;;;;;;;;;23.10;44.90;;;;;;8431196;28;19916;-43
2022/09/04 07:11:02;;;;;;;;;;;23.10;45.00;;;;;;8431156;28;19970;-44
2022/09/04 07:15:16;;;;;;;;;;;23.10;45.00;;;;;;8430241;28;19924;-47
2022/09/04 07:19:27;;;;;;;;;;;23.10;45.00;;;;;;8431131;28;20399;-45
2022/09/04 07:23:46;;;;;;;;;;;23.10;45.00;;;;;;8430457;28;19912;-46
2022/09/04 07:27:51;;;;;;;;;;;23.10;45.00;;;;;;8430421;28;20361;-47
2022/09/04 07:31:54;;;;;;;;;;;23.10;44.90;;;;;;8430844;28;20352;-45
2022/09/04 07:36:06;;;;;;;;;;;23.10;44.90;;;;;;8429933;28;19924;-45
2022/09/04 07:40:13;;;;;;;;;;;23.10;44.90;;;;;;8430256;28;19959;-46
2022/09/04 07:44:13;;;;;;;;;;;23.10;44.90;;;;;;8429650;28;19917;-46
2022/09/04 07:48:18;;;;;;;;;;;23.10;44.90;;;;;;8430663;28;19912;-45
2022/09/04 07:52:20;;;;;;;;;;;23.10;44.90;;;;;;8430207;28;19923;-45
2022/09/04 07:56:39;;;;;;;;;;;23.10;44.90;;;;;;8429689;28;19978;-46
2022/09/04 08:00:54;;;;;;;;;;;23.10;45.00;;;;;;8430263;28;19928;-45
2022/09/04 08:05:01;;;;;;;;;;;23.20;45.00;;;;;;8429997;28;19920;-43
2022/09/04 08:09:20;;;;;;;;;;;23.20;45.00;;;;;;8429333;28;19920;-44
2022/09/04 08:13:43;;;;;;;;;;;23.20;45.00;;;;;;8430128;28;20385;-44
2022/09/04 08:17:52;;;;;;;;;;;23.20;45.00;;;;;;8429121;28;19950;-44
2022/09/04 08:21:53;;;;;;;;;;;23.20;45.00;;;;;;8429533;28;20329;-43
2022/09/04 08:26:13;;;;;;;;;;;23.20;45.00;;;;;;8429581;28;19919;-42
2022/09/04 08:30:14;;;;;;;;;;;23.20;45.00;;;;;;8429467;28;19916;-43
2022/09/04 08:34:34;;;;;;;;;;;23.20;45.00;;;;;;8429416;28;19919;-46
2022/09/04 08:38:43;;;;;;;;;;;23.20;45.00;;;;;;8410860;28;20010;-46
2022/09/04 08:42:52;;;;;;;;;;;23.20;45.00;;;;;;8429171;28;20345;-44
2022/09/04 08:47:03;;;;;;;;;;;23.20;45.00;;;;;;8432706;28;19947;-44
2022/09/04 08:51:07;;;;;;;;;;;23.20;45.00;;;;;;8435158;28;20468;-45
2022/09/04 08:55:22;;;;;;;;;;;23.20;45.00;;;;;;8435392;28;19916;-45
2022/09/04 08:59:35;;;;;;;;;;;23.20;45.00;;;;;;8434963;28;19920;-43
2022/09/04 09:03:59;;;;;;;;;;;23.30;45.10;;;;;;8435435;28;19912;-45
2022/09/04 09:08:18;;;;;;;;;;;23.30;45.00;;;;;;8396593;28;19916;-44
2022/09/04 09:12:39;;;;;;;;;;;23.30;45.00;;;;;;8434618;28;19922;-43
2022/09/04 09:16:43;;;;;;;;;;;23.30;45.00;;;;;;8392919;28;19967;-46
2022/09/04 09:21:00;;;;;;;;;;;23.30;45.00;;;;;;8434253;28;19986;-44
2022/09/04 09:25:14;;;;;;;;;;;23.40;45.00;;;;;;8434511;28;19918;-46
2022/09/04 09:29:21;;;;;;;;;;;23.30;45.00;;;;;;8434062;28;20292;-45
2022/09/04 09:33:31;;;;;;;;;;;23.40;45.00;;;;;;8434796;28;19930;-46
2022/09/04 09:37:58;;;;;;;;;;;23.40;45.00;;;;;;8434033;28;19935;-46
2022/09/04 09:42:17;;;;;;;;;;;23.40;45.00;;;;;;8429559;28;19920;-47
2022/09/04 09:46:37;;;;;;;;;;;23.40;45.00;;;;;;8433971;28;19916;-44
2022/09/04 09:50:56;;;;;;;;;;;23.50;45.00;;;;;;8433383;28;19927;-43
2022/09/04 09:55:14;;;;;;;;;;;23.50;45.00;;;;;;8433548;28;19954;-44
2022/09/04 09:59:29;;;;;;;;;;;23.50;44.90;;;;;;8432143;28;19919;-45
2022/09/04 10:03:45;;;;;;;;;;;23.50;44.90;;;;;;8433577;28;19916;-46
2022/09/04 10:08:00;;;;;;;;;;;23.50;44.90;;;;;;8433241;28;19916;-44
2022/09/04 10:12:20;;;;;;;;;;;23.50;44.80;;;;;;8426280;28;19923;-46
2022/09/04 10:16:46;;;;;;;;;;;23.50;44.80;;;;;;8432803;28;20342;-48
2022/09/04 10:21:09;;;;;;;;;;;23.60;44.80;;;;;;8401145;28;20002;-46
2022/09/04 10:25:22;;;;;;;;;;;23.60;44.80;;;;;;8432878;28;19926;-47
2022/09/04 10:29:38;;;;;;;;;;;23.60;44.70;;;;;;8432370;28;19962;-45
2022/09/04 10:33:53;;;;;;;;;;;23.60;44.70;;;;;;8432645;28;19923;-45
2022/09/04 10:38:16;;;;;;;;;;;23.60;44.60;;;;;;8432259;28;19924;-45
2022/09/04 10:42:24;;;;;;;;;;;23.70;44.70;;;;;;8431970;28;19917;-45
2022/09/04 10:46:27;;;;;;;;;;;23.70;44.60;;;;;;8432308;28;20380;-46
2022/09/04 10:50:34;;;;;;;;;;;23.70;44.60;;;;;;8431444;28;19923;-45
2022/09/04 10:54:34;;;;;;;;;;;23.70;44.60;;;;;;8431936;28;19920;-45
2022/09/04 10:58:53;;;;;;;;;;;23.70;44.60;;;;;;8431384;28;19924;-47
2022/09/04 11:03:10;;;;;;;;;;;23.80;44.60;;;;;;8430861;28;19927;-44
2022/09/04 11:07:18;;;;;;;;;;;23.80;44.60;;;;;;8431678;28;19927;-45
2022/09/04 11:11:31;;;;;;;;;;;23.80;44.50;;;;;;8430701;28;19916;-46
2022/09/04 11:15:40;;;;;;;;;;;23.80;44.60;;;;;;8431239;28;19935;-46
2022/09/04 11:20:00;;;;;;;;;;;23.80;44.50;;;;;;8431212;28;19913;-46
2022/09/04 11:24:19;;;;;;;;;;;23.80;44.50;;;;;;8430654;28;19916;-46
2022/09/04 11:28:39;;;;;;;;;;;23.90;44.50;;;;;;8430524;28;19917;-45
2022/09/04 11:32:40;;;;;;;;;;;23.80;44.40;;;;;;8429875;28;19927;-45
2022/09/04 11:36:59;;;;;;;;;;;23.90;44.40;;;;;;8430330;28;20304;-45
2022/09/04 11:41:00;;;;;;;;;;;23.90;44.40;;;;;;8430495;28;19920;-44
2022/09/04 11:45:07;;;;;;;;;;;23.90;44.50;;;;;;8429815;28;19995;-44
2022/09/04 11:49:33;;;;;;;;;;;23.90;44.40;;;;;;8430393;28;20357;-45
2022/09/04 11:53:36;;;;;;;;;;;24.00;44.40;;;;;;8429731;28;19939;-44
2022/09/04 11:57:43;;;;;;;;;;;24.00;44.50;;;;;;8429924;28;19931;-43
2022/09/04 12:01:52;;;;;;;;;;;24.00;44.40;;;;;;8429846;28;19923;-44
2022/09/04 12:05:56;;;;;;;;;;;24.00;44.40;;;;;;8429203;28;19923;-45
2022/09/04 12:10:08;;;;;;;;;;;24.10;44.40;;;;;;8430040;28;19940;-45
2022/09/04 12:14:18;;;;;;;;;;;24.00;44.30;;;;;;8432962;28;19924;-48
2022/09/04 12:18:40;;;;;;;;;;;24.10;44.30;;;;;;8429224;28;19924;-45
2022/09/04 12:23:13;;;;;;;;;;;24.10;44.30;;;;;;8434572;28;20015;-45
2022/09/04 12:27:32;;;;;;;;;;;24.10;44.30;;;;;;8380449;28;19916;-44
2022/09/04 12:31:52;;;;;;;;;;;24.10;44.20;;;;;;8436367;28;19923;-46
2022/09/04 12:35:59;;;;;;;;;;;24.10;44.20;;;;;;8435685;28;19982;-46
2022/09/04 12:40:29;;;;;;;;;;;24.10;44.20;;;;;;8436353;28;20284;-45
2022/09/04 12:44:29;;;;;;;;;;;24.20;44.20;;;;;;8417771;28;19916;-44
2022/09/04 12:48:49;;;;;;;;;;;24.20;44.20;;;;;;8435737;28;19959;-44
2022/09/04 12:53:08;;;;;;;;;;;24.20;44.20;;;;;;8435695;28;20383;-44
2022/09/04 12:57:17;;;;;;;;;;;24.20;44.10;;;;;;8434973;28;20474;-44
2022/09/04 13:01:29;;;;;;;;;;;24.20;44.10;;;;;;8435558;28;19995;-44
2022/09/04 13:05:32;;;;;;;;;;;24.20;44.10;;;;;;8435224;28;20280;-43
2022/09/04 13:09:32;;;;;;;;;;;24.30;44.10;;;;;;8419855;28;19921;-42
2022/09/04 13:13:53;;;;;;;;;;;24.30;44.10;;;;;;8425837;28;19923;-41
2022/09/04 13:18:17;;;;;;;;;;;24.30;44.10;;;;;;8434311;28;20296;-44
2022/09/04 13:22:24;;;;;;;;;;;24.30;44.10;;;;;;8434926;28;19916;-45
2022/09/04 13:26:43;;;;;;;;;;;24.30;44.10;;;;;;8434259;28;20338;-45
2022/09/04 13:30:48;;;;;;;;;;;24.30;44.00;;;;;;8434722;28;19912;-43
2022/09/04 13:34:58;;;;;;;;;;;24.30;44.00;;;;;;8434507;28;19923;-44
2022/09/04 13:39:05;;;;;;;;;;;24.30;44.10;;;;;;8433798;28;19924;-43
2022/09/04 13:43:21;;;;;;;;;;;24.30;44.00;;;;;;8434022;28;20369;-42
2022/09/04 13:47:22;;;;;;;;;;;24.40;44.00;;;;;;8433553;28;19934;-43
2022/09/04 13:51:28;;;;;;;;;;;24.40;44.00;;;;;;8433796;28;19917;-43
2022/09/04 13:55:32;;;;;;;;;;;24.40;44.00;;;;;;8433930;28;19924;-43
2022/09/04 13:59:33;;;;;;;;;;;24.30;43.90;;;;;;8433181;28;20383;-45
2022/09/04 14:03:47;;;;;;;;;;;24.40;44.00;;;;;;8433398;28;19916;-44
2022/09/04 14:07:55;;;;;;;;;;;24.40;44.00;;;;;;8433407;28;19916;-43
2022/09/04 14:12:05;;;;;;;;;;;24.40;44.00;;;;;;8432820;28;19939;-44
2022/09/04 14:16:10;;;;;;;;;;;24.40;44.00;;;;;;8434738;28;19924;-45
2022/09/04 14:20:27;;;;;;;;;;;24.40;43.90;;;;;;8432843;28;19924;-43
2022/09/04 14:24:31;;;;;;;;;;;24.40;43.90;;;;;;8432770;28;19948;-44
2022/09/04 14:28:55;;;;;;;;;;;24.50;43.90;;;;;;8432542;28;19920;-44
2022/09/04 14:33:14;;;;;;;;;;;24.50;43.90;;;;;;8418720;28;19916;-43
2022/09/04 14:37:22;;;;;;;;;;;24.50;43.90;;;;;;8432327;28;19920;-44
2022/09/04 14:41:27;;;;;;;;;;;24.50;43.90;;;;;;8431882;28;19917;-44
2022/09/04 14:45:31;;;;;;;;;;;24.50;43.90;;;;;;8431638;28;19916;-44
2022/09/04 14:49:38;;;;;;;;;;;24.50;43.90;;;;;;8431871;28;19919;-45
2022/09/04 14:53:44;;;;;;;;;;;24.50;43.90;;;;;;8431346;28;19916;-43
2022/09/04 14:58:11;;;;;;;;;;;24.50;43.80;;;;;;8431812;28;19920;-43
2022/09/04 15:02:17;;;;;;;;;;;24.50;43.80;;;;;;8392327;28;19951;-43
2022/09/04 15:06:20;;;;;;;;;;;24.50;43.80;;;;;;8432034;28;20430;-43
2022/09/04 15:10:23;;;;;;;;;;;24.50;43.80;;;;;;8431434;28;20368;-43
2022/09/04 15:14:31;;;;;;;;;;;24.50;43.80;;;;;;8430613;28;20261;-44
2022/09/04 15:18:37;;;;;;;;;;;24.50;43.80;;;;;;8431264;28;19928;-43
2022/09/04 15:22:44;;;;;;;;;;;24.50;43.80;;;;;;8431009;28;19923;-43
2022/09/04 15:26:48;;;;;;;;;;;24.60;43.80;;;;;;8430301;28;19918;-42
2022/09/04 15:31:18;;;;;;;;;;;24.50;43.80;;;;;;8430906;28;19991;-45
2022/09/04 15:35:21;;;;;;;;;;;24.60;43.80;;;;;;8408455;28;19967;-45
2022/09/04 15:39:26;;;;;;;;;;;24.60;43.80;;;;;;8430575;28;20445;-43
2022/09/04 15:43:32;;;;;;;;;;;24.60;43.80;;;;;;8430515;28;19978;-44
2022/09/04 15:47:35;;;;;;;;;;;24.60;43.80;;;;;;8429781;28;19916;-44
2022/09/04 15:51:47;;;;;;;;;;;24.60;43.70;;;;;;8430453;28;20356;-42
2022/09/04 15:55:52;;;;;;;;;;;24.50;43.70;;;;;;8429363;28;19970;-43
2022/09/04 15:59:57;;;;;;;;;;;24.60;43.70;;;;;;8429547;28;19916;-43
2022/09/04 16:04:11;;;;;;;;;;;24.60;43.70;;;;;;8430169;28;20269;-43
2022/09/04 16:08:30;;;;;;;;;;;24.60;43.70;;;;;;8425229;28;19924;-44
2022/09/04 16:12:31;;;;;;;;;;;24.60;43.70;;;;;;8401465;28;19922;-43
2022/09/04 16:16:34;;;;;;;;;;;24.60;43.70;;;;;;8430026;28;19928;-43
2022/09/04 16:21:09;;;;;;;;;;;24.60;43.70;;;;;;8429215;28;19916;-46
2022/09/04 16:25:20;;;;;;;;;;;24.60;43.70;;;;;;8329770;28;20426;-44
2022/09/04 16:29:26;;;;;;;;;;;24.60;43.70;;;;;;8428972;28;19912;-43
2022/09/04 16:33:26;;;;;;;;;;;24.60;43.70;;;;;;8429711;28;19939;-44
2022/09/04 16:37:32;;;;;;;;;;;24.60;43.70;;;;;;8429260;28;19963;-43
2022/09/04 16:41:39;;;;;;;;;;;24.60;43.70;;;;;;8410974;28;19947;-46
2022/09/04 16:45:49;;;;;;;;;;;24.60;43.70;;;;;;8429377;28;19943;-44
2022/09/04 16:49:56;;;;;;;;;;;24.60;43.70;;;;;;8429054;28;20359;-45
2022/09/04 16:54:06;;;;;;;;;;;24.60;43.70;;;;;;8428800;28;19938;-43
2022/09/04 16:58:10;;;;;;;;;;;24.60;43.70;;;;;;8428782;28;19920;-45
2022/09/04 17:02:25;;;;;;;;;;;24.60;43.60;;;;;;8428863;28;19920;-44
2022/09/04 17:06:29;;;;;;;;;;;24.60;43.70;;;;;;8430088;28;19916;-46
2022/09/04 17:10:42;;;;;;;;;;;24.60;43.70;;;;;;8435055;28;19923;-43
2022/09/04 17:14:47;;;;;;;;;;;24.60;43.70;;;;;;8434183;28;19920;-44
2022/09/04 17:18:48;;;;;;;;;;;24.60;43.70;;;;;;8435142;28;19988;-44
2022/09/04 17:23:02;;;;;;;;;;;24.60;43.70;;;;;;8434965;28;20276;-45
2022/09/04 17:27:09;;;;;;;;;;;24.60;43.70;;;;;;8433962;28;19999;-44
2022/09/04 17:31:18;;;;;;;;;;;24.60;43.70;;;;;;8434796;28;20015;-44
2022/09/04 17:35:21;;;;;;;;;;;24.60;43.80;;;;;;8434222;28;19923;-45
2022/09/04 17:39:27;;;;;;;;;;;24.50;43.70;;;;;;8434383;28;20296;-44
2022/09/04 17:43:33;;;;;;;;;;;24.60;43.90;;;;;;8434042;28;19916;-44
2022/09/04 17:47:41;;;;;;;;;;;24.60;43.80;;;;;;8433518;28;19912;-45
2022/09/04 17:51:47;;;;;;;;;;;24.60;43.80;;;;;;8434138;28;19991;-45
2022/09/04 17:55:49;;;;;;;;;;;24.50;43.80;;;;;;8433628;28;19924;-46
2022/09/04 18:00:01;;;;;;;;;;;24.50;43.80;;;;;;8433241;28;20312;-44
2022/09/04 18:04:20;;;;;;;;;;;24.50;43.80;;;;;;8433618;28;19978;-44
2022/09/04 18:08:28;;;;;;;;;;;24.50;43.80;;;;;;8432843;28;19916;-44
2022/09/04 18:12:35;;;;;;;;;;;24.50;43.80;;;;;;8433324;28;19912;-45
2022/09/04 18:16:38;;;;;;;;;;;24.50;43.80;;;;;;8433007;28;20526;-44
2022/09/04 18:20:42;;;;;;;;;;;24.50;43.90;;;;;;8431534;28;19916;-43
2022/09/04 18:24:48;;;;;;;;;;;24.50;43.90;;;;;;8433092;28;19926;-42
2022/09/04 18:28:53;;;;;;;;;;;24.50;43.90;;;;;;8432908;28;19912;-42
2022/09/04 18:33:01;;;;;;;;;;;24.50;43.90;;;;;;8432013;28;19923;-45
2022/09/04 18:37:20;;;;;;;;;;;24.50;43.90;;;;;;8432658;28;19955;-43
2022/09/04 18:41:26;;;;;;;;;;;24.50;43.90;;;;;;8431826;28;20001;-43
2022/09/04 18:45:33;;;;;;;;;;;24.50;43.90;;;;;;8431957;28;19916;-43
2022/09/04 18:49:33;;;;;;;;;;;24.50;44.00;;;;;;8432052;28;20364;-45
2022/09/04 18:53:34;;;;;;;;;;;24.50;44.00;;;;;;8431526;28;19966;-44
2022/09/04 18:57:46;;;;;;;;;;;24.50;44.00;;;;;;8432223;28;19948;-45
2022/09/04 19:02:04;;;;;;;;;;;24.50;44.00;;;;;;8431572;28;19938;-44
2022/09/04 19:06:16;;;;;;;;;;;24.50;44.10;;;;;;8431131;28;20442;-44
2022/09/04 19:10:19;;;;;;;;;;;24.50;44.00;;;;;;8428750;28;19916;-43
2022/09/04 19:14:25;;;;;;;;;;;24.50;44.00;;;;;;8430669;28;19935;-43
2022/09/04 19:18:44;;;;;;;;;;;24.50;44.10;;;;;;8431124;28;20308;-43
2022/09/04 19:22:48;;;;;;;;;;;24.50;44.00;;;;;;8431286;28;19935;-42
2022/09/04 19:26:48;;;;;;;;;;;24.50;44.10;;;;;;8430305;28;19917;-43
2022/09/04 19:31:01;;;;;;;;;;;24.50;44.10;;;;;;8430590;28;19923;-44
2022/09/04 19:35:08;;;;;;;;;;;24.50;44.10;;;;;;8430808;28;20273;-42
2022/09/04 19:39:21;;;;;;;;;;;24.50;44.10;;;;;;8429990;28;19925;-43
2022/09/04 19:43:31;;;;;;;;;;;24.40;44.10;;;;;;8430305;28;20388;-44
2022/09/04 19:47:44;;;;;;;;;;;24.40;44.10;;;;;;8430099;28;19912;-44
2022/09/04 19:51:58;;;;;;;;;;;24.50;44.20;;;;;;8430228;28;19916;-43
2022/09/04 19:56:09;;;;;;;;;;;24.40;44.10;;;;;;8430536;28;19924;-44
2022/09/04 20:00:13;;;;;;;;;;;24.40;44.10;;;;;;8429581;28;20415;-43
2022/09/04 20:04:33;;;;;;;;;;;24.40;44.10;;;;;;8430052;28;19923;-44
2022/09/04 20:08:41;;;;;;;;;;;24.40;44.10;;;;;;8429427;28;19966;-50
2022/09/04 20:12:44;;;;;;;;;;;24.40;44.10;;;;;;8430032;28;19912;-44
2022/09/04 20:16:53;;;;;;;;;;;24.40;44.20;;;;;;8429597;28;20452;-42
2022/09/04 20:20:57;;;;;;;;;;;24.40;44.10;;;;;;8429375;28;19939;-44
2022/09/04 20:24:57;;;;;;;;;;;24.40;44.20;;;;;;8429584;28;19919;-44
2022/09/04 20:29:18;;;;;;;;;;;24.40;44.20;;;;;;8429698;28;19999;-43
2022/09/04 20:33:20;;;;;;;;;;;24.40;44.20;;;;;;8378358;28;19920;-43
2022/09/04 20:37:31;;;;;;;;;;;24.40;44.20;;;;;;8429525;28;20372;-43
2022/09/04 20:41:54;;;;;;;;;;;24.40;44.20;;;;;;8430196;28;20441;-44
2022/09/04 20:46:01;;;;;;;;;;;24.40;44.20;;;;;;8398013;28;19916;-44
2022/09/04 20:50:20;;;;;;;;;;;24.40;44.20;;;;;;8435920;28;19912;-46
2022/09/04 20:54:53;;;;;;;;;;;24.40;44.20;;;;;;8435704;28;19916;-44
2022/09/04 20:58:53;;;;;;;;;;;24.40;44.20;;;;;;8390981;28;19973;-45
2022/09/04 21:03:03;;;;;;;;;;;24.40;44.20;;;;;;8435631;28;19920;-44
2022/09/04 21:07:09;;;;;;;;;;;24.40;44.20;;;;;;8435302;28;20428;-45
2022/09/04 21:11:13;;;;;;;;;;;24.40;44.20;;;;;;8435257;28;19916;-44
2022/09/04 21:15:19;;;;;;;;;;;24.40;44.20;;;;;;8434185;28;19927;-43
2022/09/04 21:19:26;;;;;;;;;;;24.30;44.20;;;;;;8435013;28;19917;-43
2022/09/04 21:23:26;;;;;;;;;;;24.30;44.20;;;;;;8434542;28;20016;-43
2022/09/04 21:27:33;;;;;;;;;;;24.40;44.30;;;;;;8435017;28;19923;-44
2022/09/04 21:31:52;;;;;;;;;;;24.30;44.20;;;;;;8434763;28;19916;-44
2022/09/04 21:35:59;;;;;;;;;;;24.30;44.20;;;;;;8433897;28;19928;-44
2022/09/04 21:40:18;;;;;;;;;;;24.30;44.20;;;;;;8434300;28;19934;-43
2022/09/04 21:44:25;;;;;;;;;;;24.30;44.30;;;;;;8434098;28;19916;-43
2022/09/04 21:48:40;;;;;;;;;;;24.30;44.30;;;;;;8434270;28;19916;-44
2022/09/04 21:52:47;;;;;;;;;;;24.30;44.20;;;;;;8433946;28;19916;-44
2022/09/04 21:56:50;;;;;;;;;;;24.30;44.30;;;;;;8433218;28;19999;-45
2022/09/04 22:00:58;;;;;;;;;;;24.30;44.30;;;;;;8433031;28;19916;-45
2022/09/04 22:05:17;;;;;;;;;;;24.30;44.30;;;;;;8432303;28;19912;-46
2022/09/04 22:09:34;;;;;;;;;;;24.30;44.30;;;;;;8433026;28;19924;-43
2022/09/04 22:13:48;;;;;;;;;;;24.30;44.30;;;;;;8415485;28;19923;-46
2022/09/04 22:18:01;;;;;;;;;;;24.30;44.30;;;;;;8432586;28;19924;-46
2022/09/04 22:22:20;;;;;;;;;;;24.30;44.30;;;;;;8433024;28;19995;-43
2022/09/04 22:26:32;;;;;;;;;;;24.30;44.30;;;;;;8432501;28;20261;-46
2022/09/04 22:30:51;;;;;;;;;;;24.20;44.30;;;;;;8432829;28;20324;-44
2022/09/04 22:35:01;;;;;;;;;;;24.30;44.30;;;;;;8432785;28;19969;-43
2022/09/04 22:39:20;;;;;;;;;;;24.30;44.30;;;;;;8432109;28;19920;-44
2022/09/04 22:43:23;;;;;;;;;;;24.20;44.30;;;;;;8432579;28;19916;-44
2022/09/04 22:47:32;;;;;;;;;;;24.20;44.30;;;;;;8431755;28;19923;-43
2022/09/04 22:51:41;;;;;;;;;;;24.30;44.30;;;;;;8432491;28;20005;-44
2022/09/04 22:55:51;;;;;;;;;;;24.20;44.30;;;;;;8432220;28;19920;-43
2022/09/04 22:59:51;;;;;;;;;;;24.20;44.30;;;;;;8431370;28;20288;-45
2022/09/04 23:04:10;;;;;;;;;;;24.20;44.30;;;;;;8431772;28;20011;-43
2022/09/04 23:08:19;;;;;;;;;;;24.20;44.30;;;;;;8431528;28;19923;-44
2022/09/04 23:12:33;;;;;;;;;;;24.20;44.30;;;;;;8431121;28;19916;-43
2022/09/04 23:16:33;;;;;;;;;;;24.20;44.30;;;;;;8431377;28;19925;-44
2022/09/04 23:20:34;;;;;;;;;;;24.20;44.40;;;;;;8430731;28;19916;-44
2022/09/04 23:24:41;;;;;;;;;;;24.20;44.40;;;;;;8431198;28;19912;-44
2022/09/04 23:29:03;;;;;;;;;;;24.10;44.30;;;;;;8430942;28;19961;-44
2022/09/04 23:33:22;;;;;;;;;;;24.10;44.30;;;;;;8430401;28;19938;-44
2022/09/04 23:37:35;;;;;;;;;;;24.20;44.40;;;;;;8430895;28;19980;-43
2022/09/04 23:41:53;;;;;;;;;;;24.10;44.30;;;;;;8430193;28;19924;-45
2022/09/04 23:45:54;;;;;;;;;;;24.10;44.40;;;;;;8430700;28;20388;-44
2022/09/04 23:49:54;;;;;;;;;;;24.20;44.40;;;;;;8430650;28;19912;-45
2022/09/04 23:54:23;;;;;;;;;;;24.10;44.30;;;;;;8429865;28;19981;-44
